www.cux-wetter.de
Wetterdaten: Freitag, 08.10.2010
Datum Zeit Temp. A. Feuchte A. Luftdruck Regen Wind Richtung Richtung Sonnenschein Solar Taupunkt Windchill Windben
08.10.2010 00:00 14,7 C 90 % 1022,5 hPa 0,0 l/m 7,0 km/h (2 Bft) SO 135 0 min 0 W/m 13,1 C 14,4 C 7,0 km/h (2 Bft)
08.10.2010 00:05 14,7 C 91 % 1022,5 hPa 0,0 l/m 8,7 km/h (2 Bft) O-SO 115 0 min 0 W/m 13,2 C 13,4 C 8,7 km/h (2 Bft)
08.10.2010 00:10 14,7 C 91 % 1022,5 hPa 0,0 l/m 6,5 km/h (2 Bft) O-SO 120 0 min 0 W/m 13,2 C 14,7 C 6,5 km/h (2 Bft)
08.10.2010 00:15 14,7 C 91 % 1021,5 hPa 0,0 l/m 8,7 km/h (2 Bft) O 95 0 min 0 W/m 13,2 C 13,4 C 8,7 km/h (2 Bft)
08.10.2010 00:20 14,7 C 91 % 1021,5 hPa 0,0 l/m 10,1 km/h (2 Bft) O-SO 115 0 min 0 W/m 13,2 C 12,7 C 10,1 km/h (2 Bft)
08.10.2010 00:25 14,7 C 91 % 1021,5 hPa 0,0 l/m 9,5 km/h (2 Bft) SO 135 0 min 0 W/m 13,2 C 13,0 C 9,5 km/h (2 Bft)
08.10.2010 00:30 14,7 C 91 % 1021,5 hPa 0,0 l/m 11,7 km/h (2 Bft) SO 125 0 min 0 W/m 13,2 C 12,0 C 11,7 km/h (2 Bft)
08.10.2010 00:35 14,7 C 91 % 1021,5 hPa 0,0 l/m 7,8 km/h (2 Bft) O-SO 115 0 min 0 W/m 13,2 C 13,9 C 7,8 km/h (2 Bft)
08.10.2010 00:40 14,7 C 91 % 1021,5 hPa 0,0 l/m 7,8 km/h (2 Bft) O 100 0 min 0 W/m 13,2 C 13,9 C 7,8 km/h (2 Bft)
08.10.2010 00:45 14,7 C 91 % 1021,5 hPa 0,0 l/m 4,5 km/h (1 Bft) O 90 0 min 0 W/m 13,2 C 14,7 C 4,5 km/h (1 Bft)
08.10.2010 00:50 14,7 C 91 % 1021,5 hPa 0,0 l/m 10,1 km/h (2 Bft) O-NO 75 0 min 0 W/m 13,2 C 12,7 C 10,1 km/h (2 Bft)
08.10.2010 00:55 14,7 C 91 % 1021,5 hPa 0,0 l/m 8,8 km/h (2 Bft) O-SO 115 0 min 0 W/m 13,2 C 13,4 C 8,8 km/h (2 Bft)
08.10.2010 01:00 14,7 C 91 % 1021,5 hPa 0,0 l/m 6,6 km/h (2 Bft) SO 130 0 min 0 W/m 13,2 C 14,6 C 6,6 km/h (2 Bft)
08.10.2010 01:05 14,7 C 91 % 1021,5 hPa 0,0 l/m 5,7 km/h (2 Bft) O 100 0 min 0 W/m 13,2 C 14,7 C 5,7 km/h (2 Bft)
08.10.2010 01:10 14,7 C 91 % 1022,5 hPa 0,0 l/m 9,4 km/h (2 Bft) O 95 0 min 0 W/m 13,2 C 13,1 C 9,4 km/h (2 Bft)
08.10.2010 01:15 14,7 C 91 % 1022,5 hPa 0,0 l/m 6,8 km/h (2 Bft) O 85 0 min 0 W/m 13,2 C 14,5 C 6,8 km/h (2 Bft)
08.10.2010 01:20 14,8 C 91 % 1022,5 hPa 0,0 l/m 5,3 km/h (1 Bft) O 90 0 min 0 W/m 13,3 C 14,8 C 5,3 km/h (1 Bft)
08.10.2010 01:25 14,8 C 91 % 1022,5 hPa 0,0 l/m 9,2 km/h (2 Bft) O 100 0 min 0 W/m 13,3 C 13,3 C 9,2 km/h (2 Bft)
08.10.2010 01:30 14,7 C 91 % 1021,5 hPa 0,0 l/m 8,8 km/h (2 Bft) O-NO 75 0 min 0 W/m 13,2 C 13,4 C 8,8 km/h (2 Bft)
08.10.2010 01:35 14,7 C 91 % 1021,5 hPa 0,0 l/m 11,8 km/h (2 Bft) O-SO 110 0 min 0 W/m 13,2 C 12,0 C 11,8 km/h (2 Bft)
08.10.2010 01:40 14,7 C 91 % 1021,5 hPa 0,0 l/m 9,2 km/h (2 Bft) O 85 0 min 0 W/m 13,2 C 13,2 C 9,2 km/h (2 Bft)
08.10.2010 01:45 14,8 C 92 % 1021,5 hPa 0,0 l/m 8,7 km/h (2 Bft) O 90 0 min 0 W/m 13,5 C 13,5 C 8,7 km/h (2 Bft)
08.10.2010 01:50 14,7 C 92 % 1021,5 hPa 0,0 l/m 7,4 km/h (2 Bft) O 85 0 min 0 W/m 13,4 C 14,1 C 7,4 km/h (2 Bft)
08.10.2010 01:55 14,7 C 92 % 1021,5 hPa 0,0 l/m 12,3 km/h (2 Bft) O-NO 75 0 min 0 W/m 13,4 C 11,8 C 12,3 km/h (2 Bft)
08.10.2010 02:00 14,7 C 92 % 1021,5 hPa 0,0 l/m 1,3 km/h (1 Bft) O-SO 120 0 min 0 W/m 13,4 C 14,7 C 1,3 km/h (1 Bft)
08.10.2010 02:05 14,7 C 91 % 1021,5 hPa 0,0 l/m 7,3 km/h (2 Bft) O-SO 115 0 min 0 W/m 13,2 C 14,2 C 7,3 km/h (2 Bft)
08.10.2010 02:10 14,7 C 92 % 1022,5 hPa 0,0 l/m 1,6 km/h (1 Bft) SO 125 0 min 0 W/m 13,4 C 14,7 C 1,6 km/h (1 Bft)
08.10.2010 02:15 14,7 C 92 % 1021,5 hPa 0,0 l/m 7,0 km/h (2 Bft) O-SO 105 0 min 0 W/m 13,4 C 14,4 C 7,0 km/h (2 Bft)
08.10.2010 02:20 14,6 C 92 % 1021,5 hPa 0,0 l/m 8,9 km/h (2 Bft) O 95 0 min 0 W/m 13,3 C 13,2 C 8,9 km/h (2 Bft)
08.10.2010 02:25 14,6 C 92 % 1021,5 hPa 0,0 l/m 9,2 km/h (2 Bft) NO 55 0 min 0 W/m 13,3 C 13,1 C 9,2 km/h (2 Bft)
08.10.2010 02:30 14,6 C 92 % 1021,5 hPa 0,0 l/m 8,1 km/h (2 Bft) O 95 0 min 0 W/m 13,3 C 13,6 C 8,1 km/h (2 Bft)
08.10.2010 02:35 14,5 C 92 % 1021,5 hPa 0,0 l/m 12,0 km/h (2 Bft) O 95 0 min 0 W/m 13,2 C 11,7 C 12,0 km/h (2 Bft)
08.10.2010 02:40 14,4 C 92 % 1021,5 hPa 0,0 l/m 6,7 km/h (2 Bft) O-SO 110 0 min 0 W/m 13,1 C 14,2 C 6,7 km/h (2 Bft)
08.10.2010 02:45 14,4 C 92 % 1021,5 hPa 0,0 l/m 14,8 km/h (3 Bft) O-SO 115 0 min 0 W/m 13,1 C 10,5 C 14,8 km/h (3 Bft)
08.10.2010 02:50 14,4 C 92 % 1021,5 hPa 0,0 l/m 6,8 km/h (2 Bft) SO 125 0 min 0 W/m 13,1 C 14,2 C 6,8 km/h (2 Bft)
08.10.2010 02:55 14,4 C 92 % 1021,5 hPa 0,0 l/m 13,1 km/h (3 Bft) O-SO 110 0 min 0 W/m 13,1 C 11,1 C 13,1 km/h (3 Bft)
08.10.2010 03:00 14,4 C 92 % 1021,5 hPa 0,0 l/m 8,9 km/h (2 Bft) O-SO 115 0 min 0 W/m 13,1 C 13,0 C 8,9 km/h (2 Bft)
08.10.2010 03:06 14,4 C 92 % 1021,5 hPa 0,0 l/m 2,0 km/h (1 Bft) O 90 0 min 0 W/m 13,1 C 14,4 C 2,0 km/h (1 Bft)
08.10.2010 03:10 14,4 C 92 % 1021,5 hPa 0,0 l/m 2,0 km/h (1 Bft) SO 130 0 min 0 W/m 13,1 C 14,4 C 2,0 km/h (1 Bft)
08.10.2010 03:15 14,4 C 92 % 1021,5 hPa 0,0 l/m 11,0 km/h (2 Bft) O-SO 105 0 min 0 W/m 13,1 C 12,0 C 11,0 km/h (2 Bft)
08.10.2010 03:20 14,4 C 92 % 1021,5 hPa 0,0 l/m 10,0 km/h (2 Bft) O-SO 110 0 min 0 W/m 13,1 C 12,5 C 10,0 km/h (2 Bft)
08.10.2010 03:25 14,4 C 92 % 1021,5 hPa 0,0 l/m 14,1 km/h (3 Bft) O-SO 110 0 min 0 W/m 13,1 C 10,8 C 14,1 km/h (3 Bft)
08.10.2010 03:30 14,4 C 92 % 1021,5 hPa 0,0 l/m 9,5 km/h (2 Bft) SO 125 0 min 0 W/m 13,1 C 12,7 C 9,5 km/h (2 Bft)
08.10.2010 03:35 14,4 C 92 % 1021,5 hPa 0,0 l/m 11,8 km/h (2 Bft) O-SO 115 0 min 0 W/m 13,1 C 11,7 C 11,8 km/h (2 Bft)
08.10.2010 03:40 14,4 C 92 % 1021,5 hPa 0,0 l/m 9,5 km/h (2 Bft) O-SO 115 0 min 0 W/m 13,1 C 12,7 C 9,5 km/h (2 Bft)
08.10.2010 03:45 14,4 C 92 % 1021,5 hPa 0,0 l/m 10,0 km/h (2 Bft) O 80 0 min 0 W/m 13,1 C 12,5 C 10,0 km/h (2 Bft)
08.10.2010 03:51 14,4 C 92 % 1021,5 hPa 0,0 l/m 5,4 km/h (2 Bft) SO 125 0 min 0 W/m 13,1 C 14,4 C 5,4 km/h (2 Bft)
08.10.2010 03:55 14,4 C 92 % 1021,5 hPa 0,0 l/m 8,1 km/h (2 Bft) O-SO 110 0 min 0 W/m 13,1 C 13,4 C 8,1 km/h (2 Bft)
08.10.2010 04:00 14,4 C 92 % 1021,5 hPa 0,0 l/m 8,4 km/h (2 Bft) O 95 0 min 0 W/m 13,1 C 13,3 C 8,4 km/h (2 Bft)
08.10.2010 04:05 14,4 C 92 % 1021,5 hPa 0,0 l/m 8,7 km/h (2 Bft) O-SO 105 0 min 0 W/m 13,1 C 13,1 C 8,7 km/h (2 Bft)
08.10.2010 04:10 14,4 C 92 % 1021,5 hPa 0,0 l/m 7,7 km/h (2 Bft) O-SO 110 0 min 0 W/m 13,1 C 13,6 C 7,7 km/h (2 Bft)
08.10.2010 04:15 14,4 C 92 % 1021,5 hPa 0,0 l/m 9,2 km/h (2 Bft) O-SO 115 0 min 0 W/m 13,1 C 12,8 C 9,2 km/h (2 Bft)
08.10.2010 04:20 14,4 C 92 % 1021,5 hPa 0,0 l/m 10,8 km/h (2 Bft) S-SO 150 0 min 0 W/m 13,1 C 12,1 C 10,8 km/h (2 Bft)
08.10.2010 04:25 14,4 C 92 % 1021,5 hPa 0,0 l/m 6,4 km/h (2 Bft) SO 125 0 min 0 W/m 13,1 C 14,4 C 6,4 km/h (2 Bft)
08.10.2010 04:30 14,4 C 92 % 1021,5 hPa 0,0 l/m 9,2 km/h (2 Bft) SO 125 0 min 0 W/m 13,1 C 12,8 C 9,2 km/h (2 Bft)
08.10.2010 04:35 14,3 C 92 % 1021,5 hPa 0,0 l/m 8,3 km/h (2 Bft) O-SO 110 0 min 0 W/m 13,0 C 13,2 C 8,3 km/h (2 Bft)
08.10.2010 04:40 14,3 C 92 % 1021,5 hPa 0,0 l/m 10,6 km/h (2 Bft) SO 145 0 min 0 W/m 13,0 C 12,1 C 10,6 km/h (2 Bft)
08.10.2010 04:45 14,3 C 92 % 1021,5 hPa 0,0 l/m 10,2 km/h (2 Bft) O-SO 110 0 min 0 W/m 13,0 C 12,3 C 10,2 km/h (2 Bft)
08.10.2010 04:50 14,4 C 92 % 1021,5 hPa 0,0 l/m 11,3 km/h (2 Bft) SO 130 0 min 0 W/m 13,1 C 11,9 C 11,3 km/h (2 Bft)
08.10.2010 04:55 14,3 C 92 % 1021,5 hPa 0,0 l/m 11,8 km/h (2 Bft) S-SO 150 0 min 0 W/m 13,0 C 11,5 C 11,8 km/h (2 Bft)
08.10.2010 05:00 14,3 C 92 % 1021,5 hPa 0,0 l/m 14,5 km/h (3 Bft) S-SO 150 0 min 0 W/m 13,0 C 10,5 C 14,5 km/h (3 Bft)
08.10.2010 05:05 14,3 C 92 % 1021,5 hPa 0,0 l/m 13,0 km/h (3 Bft) SO 125 0 min 0 W/m 13,0 C 11,1 C 13,0 km/h (3 Bft)
08.10.2010 05:10 14,4 C 92 % 1021,5 hPa 0,0 l/m 9,1 km/h (2 Bft) SO 140 0 min 0 W/m 13,1 C 12,9 C 9,1 km/h (2 Bft)
08.10.2010 05:15 14,4 C 92 % 1021,5 hPa 0,0 l/m 9,2 km/h (2 Bft) SO 140 0 min 0 W/m 13,1 C 12,8 C 9,2 km/h (2 Bft)
08.10.2010 05:20 14,3 C 92 % 1021,5 hPa 0,0 l/m 9,2 km/h (2 Bft) SO 140 0 min 0 W/m 13,0 C 12,7 C 9,2 km/h (2 Bft)
08.10.2010 05:25 14,3 C 92 % 1021,5 hPa 0,0 l/m 11,6 km/h (2 Bft) O 100 0 min 0 W/m 13,0 C 11,6 C 11,6 km/h (2 Bft)
08.10.2010 05:30 14,3 C 92 % 1021,5 hPa 0,0 l/m 13,4 km/h (3 Bft) SO 125 0 min 0 W/m 13,0 C 10,9 C 13,4 km/h (3 Bft)
08.10.2010 05:35 14,3 C 92 % 1021,5 hPa 0,0 l/m 11,0 km/h (2 Bft) SO 135 0 min 0 W/m 13,0 C 11,9 C 11,0 km/h (2 Bft)
08.10.2010 05:40 14,3 C 92 % 1021,5 hPa 0,0 l/m 10,0 km/h (2 Bft) O 95 0 min 0 W/m 13,0 C 12,3 C 10,0 km/h (2 Bft)
08.10.2010 05:45 14,3 C 92 % 1021,5 hPa 0,0 l/m 9,8 km/h (2 Bft) SO 125 0 min 0 W/m 13,0 C 12,4 C 9,8 km/h (2 Bft)
08.10.2010 05:50 14,3 C 92 % 1021,5 hPa 0,0 l/m 12,0 km/h (2 Bft) SO 125 0 min 0 W/m 13,0 C 11,5 C 12,0 km/h (2 Bft)
08.10.2010 05:55 14,2 C 92 % 1021,5 hPa 0,0 l/m 11,3 km/h (2 Bft) O-SO 120 0 min 0 W/m 12,9 C 11,6 C 11,3 km/h (2 Bft)
08.10.2010 06:00 14,2 C 92 % 1021,5 hPa 0,0 l/m 15,9 km/h (3 Bft) O-SO 120 0 min 0 W/m 12,9 C 9,9 C 15,9 km/h (3 Bft)
08.10.2010 06:05 14,2 C 92 % 1021,5 hPa 0,0 l/m 7,9 km/h (2 Bft) O 100 0 min 0 W/m 12,9 C 13,3 C 7,9 km/h (2 Bft)
08.10.2010 06:10 14,2 C 92 % 1021,5 hPa 0,0 l/m 8,9 km/h (2 Bft) O-SO 115 0 min 0 W/m 12,9 C 12,8 C 8,9 km/h (2 Bft)
08.10.2010 06:15 14,2 C 92 % 1021,5 hPa 0,0 l/m 11,0 km/h (2 Bft) SO 130 0 min 0 W/m 12,9 C 11,8 C 11,0 km/h (2 Bft)
08.10.2010 06:20 14,2 C 92 % 1021,5 hPa 0,0 l/m 9,3 km/h (2 Bft) O-SO 115 0 min 0 W/m 12,9 C 12,6 C 9,3 km/h (2 Bft)
08.10.2010 06:25 14,1 C 92 % 1021,5 hPa 0,0 l/m 7,6 km/h (2 Bft) O-SO 115 0 min 0 W/m 12,8 C 13,4 C 7,6 km/h (2 Bft)
08.10.2010 06:30 14,1 C 92 % 1021,5 hPa 0,0 l/m 9,0 km/h (2 Bft) SO 135 0 min 0 W/m 12,8 C 12,6 C 9,0 km/h (2 Bft)
08.10.2010 06:35 14,0 C 92 % 1021,5 hPa 0,0 l/m 6,7 km/h (2 Bft) SO 125 0 min 0 W/m 12,7 C 13,8 C 6,7 km/h (2 Bft)
08.10.2010 06:40 14,0 C 92 % 1021,5 hPa 0,0 l/m 5,0 km/h (1 Bft) O 80 0 min 0 W/m 12,7 C 14,0 C 5,0 km/h (1 Bft)
08.10.2010 06:45 14,0 C 92 % 1021,5 hPa 0,0 l/m 8,7 km/h (2 Bft) O-SO 110 0 min 0 W/m 12,7 C 12,7 C 8,7 km/h (2 Bft)
08.10.2010 06:50 14,0 C 92 % 1021,5 hPa 0,0 l/m 9,2 km/h (2 Bft) O 85 0 min 0 W/m 12,7 C 12,4 C 9,2 km/h (2 Bft)
08.10.2010 06:55 14,0 C 92 % 1021,5 hPa 0,0 l/m 8,7 km/h (2 Bft) SO 125 0 min 0 W/m 12,7 C 12,7 C 8,7 km/h (2 Bft)
08.10.2010 07:00 14,0 C 92 % 1021,5 hPa 0,0 l/m 9,2 km/h (2 Bft) O-SO 105 0 min 0 W/m 12,7 C 12,4 C 9,2 km/h (2 Bft)
08.10.2010 07:06 13,9 C 92 % 1021,5 hPa 0,0 l/m 8,3 km/h (2 Bft) O-SO 120 0 min 0 W/m 12,6 C 12,8 C 8,3 km/h (2 Bft)
08.10.2010 07:10 13,9 C 92 % 1021,5 hPa 0,0 l/m 6,1 km/h (2 Bft) SO 130 0 min 0 W/m 12,6 C 13,9 C 6,1 km/h (2 Bft)
08.10.2010 07:15 13,9 C 92 % 1021,5 hPa 0,0 l/m 8,7 km/h (2 Bft) O-SO 110 0 min 0 W/m 12,6 C 12,6 C 8,7 km/h (2 Bft)
08.10.2010 07:20 13,8 C 92 % 1021,5 hPa 0,0 l/m 14,6 km/h (3 Bft) SO 135 0 min 0 W/m 12,5 C 9,9 C 14,6 km/h (3 Bft)
08.10.2010 07:25 13,8 C 92 % 1021,5 hPa 0,0 l/m 9,5 km/h (2 Bft) O 95 0 min 0 W/m 12,5 C 12,0 C 9,5 km/h (2 Bft)
08.10.2010 07:30 13,8 C 92 % 1021,5 hPa 0,0 l/m 9,7 km/h (2 Bft) O 100 0 min 0 W/m 12,5 C 11,9 C 9,7 km/h (2 Bft)
08.10.2010 07:35 13,8 C 92 % 1021,5 hPa 0,0 l/m 10,7 km/h (2 Bft) O 95 0 min 0 W/m 12,5 C 11,5 C 10,7 km/h (2 Bft)
08.10.2010 07:40 13,8 C 91 % 1021,5 hPa 0,0 l/m 15,1 km/h (3 Bft) O 95 0 min 0 W/m 12,4 C 9,7 C 15,1 km/h (3 Bft)
08.10.2010 07:45 13,8 C 91 % 1021,5 hPa 0,0 l/m 13,6 km/h (3 Bft) SO 145 0 min 0 W/m 12,4 C 10,2 C 13,6 km/h (3 Bft)
08.10.2010 07:50 13,7 C 91 % 1021,5 hPa 0,0 l/m 11,8 km/h (2 Bft) SO 130 0 min 0 W/m 12,3 C 10,9 C 11,8 km/h (2 Bft)
08.10.2010 07:55 13,6 C 91 % 1021,5 hPa 0,0 l/m 12,4 km/h (2 Bft) O-SO 120 0 min 0 W/m 12,2 C 10,5 C 12,4 km/h (2 Bft)
08.10.2010 08:00 13,6 C 91 % 1021,5 hPa 0,0 l/m 11,1 km/h (2 Bft) O 95 0 min 0 W/m 12,2 C 11,1 C 11,1 km/h (2 Bft)
08.10.2010 08:05 13,6 C 91 % 1021,5 hPa 0,0 l/m 11,1 km/h (2 Bft) O-SO 105 0 min 0 W/m 12,2 C 11,1 C 11,1 km/h (2 Bft)
08.10.2010 08:11 13,6 C 91 % 1021,5 hPa 0,0 l/m 10,2 km/h (2 Bft) O 90 0 min 0 W/m 12,2 C 11,5 C 10,2 km/h (2 Bft)
08.10.2010 08:15 13,5 C 91 % 1021,5 hPa 0,0 l/m 10,8 km/h (2 Bft) O-SO 120 0 min 0 W/m 12,1 C 11,1 C 10,8 km/h (2 Bft)
08.10.2010 08:20 13,5 C 91 % 1021,5 hPa 0,0 l/m 13,0 km/h (3 Bft) O-SO 120 0 min 0 W/m 12,1 C 10,1 C 13,0 km/h (3 Bft)
08.10.2010 08:25 13,5 C 91 % 1021,5 hPa 0,0 l/m 13,0 km/h (3 Bft) S 170 0 min 0 W/m 12,1 C 10,1 C 13,0 km/h (3 Bft)
08.10.2010 08:30 13,4 C 91 % 1021,5 hPa 0,0 l/m 10,0 km/h (2 Bft) O 100 0 min 0 W/m 12,0 C 11,4 C 10,0 km/h (2 Bft)
08.10.2010 08:35 13,5 C 91 % 1021,5 hPa 0,0 l/m 17,3 km/h (3 Bft) SO 125 0 min 0 W/m 12,1 C 8,6 C 17,3 km/h (3 Bft)
08.10.2010 08:40 13,4 C 90 % 1021,5 hPa 0,0 l/m 15,4 km/h (3 Bft) O-SO 115 0 min 0 W/m 11,8 C 9,1 C 15,4 km/h (3 Bft)
08.10.2010 08:45 13,5 C 90 % 1021,5 hPa 0,0 l/m 11,9 km/h (2 Bft) O 100 0 min 0 W/m 11,9 C 10,6 C 11,9 km/h (2 Bft)
08.10.2010 08:50 13,4 C 90 % 1021,5 hPa 0,0 l/m 12,2 km/h (2 Bft) O-SO 105 0 min 0 W/m 11,8 C 10,3 C 12,2 km/h (2 Bft)
08.10.2010 08:55 13,4 C 90 % 1021,5 hPa 0,0 l/m 12,0 km/h (2 Bft) O-SO 120 0 min 0 W/m 11,8 C 10,4 C 12,0 km/h (2 Bft)
08.10.2010 09:00 13,4 C 90 % 1022,5 hPa 0,0 l/m 22,0 km/h (4 Bft) O 95 0 min 0 W/m 11,8 C 7,2 C 22,0 km/h (4 Bft)
08.10.2010 09:05 13,4 C 90 % 1022,5 hPa 0,0 l/m 20,4 km/h (4 Bft) O-SO 105 0 min 0 W/m 11,8 C 7,6 C 20,4 km/h (4 Bft)
08.10.2010 09:10 13,4 C 90 % 1022,5 hPa 0,0 l/m 20,0 km/h (4 Bft) O-SO 120 0 min 0 W/m 11,8 C 7,7 C 20,0 km/h (4 Bft)
08.10.2010 09:16 13,4 C 90 % 1022,5 hPa 0,0 l/m 24,0 km/h (4 Bft) O 100 0 min 0 W/m 11,8 C 6,7 C 24,0 km/h (4 Bft)
08.10.2010 09:20 13,4 C 90 % 1022,5 hPa 0,0 l/m 18,2 km/h (3 Bft) O 100 0 min 0 W/m 11,8 C 8,2 C 18,2 km/h (3 Bft)
08.10.2010 09:25 13,4 C 90 % 1022,5 hPa 0,0 l/m 15,8 km/h (3 Bft) SO 125 0 min 0 W/m 11,8 C 9,0 C 15,8 km/h (3 Bft)
08.10.2010 09:30 13,5 C 90 % 1022,5 hPa 0,0 l/m 17,5 km/h (3 Bft) SO 130 0 min 0 W/m 11,9 C 8,5 C 17,5 km/h (3 Bft)
08.10.2010 09:35 13,5 C 90 % 1022,5 hPa 0,0 l/m 14,6 km/h (3 Bft) O-SO 120 0 min 0 W/m 11,9 C 9,5 C 14,6 km/h (3 Bft)
08.10.2010 09:40 13,5 C 90 % 1022,5 hPa 0,0 l/m 19,2 km/h (3 Bft) SO 125 0 min 0 W/m 11,9 C 8,0 C 19,2 km/h (3 Bft)
08.10.2010 09:45 13,6 C 89 % 1022,5 hPa 0,0 l/m 19,1 km/h (3 Bft) O 100 0 min 0 W/m 11,8 C 8,2 C 19,1 km/h (3 Bft)
08.10.2010 09:50 13,6 C 89 % 1022,5 hPa 0,0 l/m 17,0 km/h (3 Bft) O 90 0 min 0 W/m 11,8 C 8,8 C 17,0 km/h (3 Bft)
08.10.2010 09:56 13,6 C 89 % 1022,5 hPa 0,0 l/m 16,6 km/h (3 Bft) O-SO 110 0 min 0 W/m 11,8 C 9,0 C 16,6 km/h (3 Bft)
08.10.2010 10:00 13,7 C 89 % 1022,5 hPa 0,0 l/m 16,0 km/h (3 Bft) O-SO 110 0 min 0 W/m 11,9 C 9,3 C 16,0 km/h (3 Bft)
08.10.2010 10:05 13,7 C 88 % 1022,5 hPa 0,0 l/m 23,6 km/h (4 Bft) O 95 0 min 0 W/m 11,7 C 7,2 C 23,6 km/h (4 Bft)
08.10.2010 10:10 13,8 C 88 % 1022,5 hPa 0,0 l/m 25,3 km/h (4 Bft) O 95 0 min 0 W/m 11,8 C 6,9 C 25,3 km/h (4 Bft)
08.10.2010 10:15 13,9 C 87 % 1022,5 hPa 0,0 l/m 20,7 km/h (4 Bft) SO 130 0 min 0 W/m 11,8 C 8,1 C 20,7 km/h (4 Bft)
08.10.2010 10:20 14,0 C 88 % 1022,5 hPa 0,0 l/m 24,0 km/h (4 Bft) SO 125 0 min 0 W/m 12,0 C 7,5 C 24,0 km/h (4 Bft)
08.10.2010 10:25 14,0 C 88 % 1022,5 hPa 0,0 l/m 21,6 km/h (4 Bft) O-SO 110 0 min 0 W/m 12,0 C 8,0 C 21,6 km/h (4 Bft)
08.10.2010 10:30 14,1 C 87 % 1022,5 hPa 0,0 l/m 12,3 km/h (2 Bft) SO 145 0 min 0 W/m 12,0 C 11,1 C 12,3 km/h (2 Bft)
08.10.2010 10:35 14,1 C 87 % 1022,5 hPa 0,0 l/m 17,1 km/h (3 Bft) O 100 0 min 0 W/m 12,0 C 9,4 C 17,1 km/h (3 Bft)
08.10.2010 10:40 14,2 C 86 % 1022,5 hPa 0,0 l/m 16,0 km/h (3 Bft) O-SO 105 0 min 0 W/m 11,9 C 9,9 C 16,0 km/h (3 Bft)
08.10.2010 10:45 14,1 C 86 % 1022,5 hPa 0,0 l/m 14,1 km/h (3 Bft) SO 135 0 min 0 W/m 11,8 C 10,4 C 14,1 km/h (3 Bft)
08.10.2010 10:50 14,2 C 86 % 1022,5 hPa 0,0 l/m 14,5 km/h (3 Bft) O-SO 120 0 min 0 W/m 11,9 C 10,4 C 14,5 km/h (3 Bft)
08.10.2010 10:55 14,3 C 86 % 1022,5 hPa 0,0 l/m 18,1 km/h (3 Bft) SO 130 0 min 0 W/m 12,0 C 9,4 C 18,1 km/h (3 Bft)
08.10.2010 11:00 14,3 C 86 % 1022,5 hPa 0,0 l/m 20,0 km/h (4 Bft) O-SO 110 0 min 0 W/m 12,0 C 8,8 C 20,0 km/h (4 Bft)
08.10.2010 11:05 14,4 C 86 % 1022,5 hPa 0,0 l/m 16,5 km/h (3 Bft) S-SO 150 0 min 0 W/m 12,1 C 10,0 C 16,5 km/h (3 Bft)
08.10.2010 11:10 14,4 C 85 % 1022,5 hPa 0,0 l/m 19,5 km/h (3 Bft) O-SO 115 0 min 0 W/m 11,9 C 9,1 C 19,5 km/h (3 Bft)
08.10.2010 11:15 14,4 C 85 % 1022,5 hPa 0,0 l/m 20,5 km/h (4 Bft) SO 125 0 min 0 W/m 11,9 C 8,8 C 20,5 km/h (4 Bft)
08.10.2010 11:20 14,4 C 85 % 1022,5 hPa 0,0 l/m 18,5 km/h (3 Bft) O-SO 115 0 min 0 W/m 11,9 C 9,4 C 18,5 km/h (3 Bft)
08.10.2010 11:25 14,5 C 86 % 1022,5 hPa 0,0 l/m 12,9 km/h (3 Bft) O-SO 105 0 min 0 W/m 12,2 C 11,3 C 12,9 km/h (3 Bft)
08.10.2010 11:30 14,6 C 86 % 1022,5 hPa 0,0 l/m 12,6 km/h (3 Bft) SO 125 0 min 0 W/m 12,3 C 11,6 C 12,6 km/h (3 Bft)
08.10.2010 11:35 14,9 C 85 % 1022,5 hPa 0,0 l/m 15,5 km/h (3 Bft) S-SO 150 0 min 0 W/m 12,4 C 10,9 C 15,5 km/h (3 Bft)
08.10.2010 11:40 15,0 C 85 % 1022,5 hPa 0,0 l/m 10,4 km/h (2 Bft) O-SO 120 0 min 0 W/m 12,5 C 12,9 C 10,4 km/h (2 Bft)
08.10.2010 11:45 15,0 C 84 % 1022,5 hPa 0,0 l/m 17,1 km/h (3 Bft) SO 125 0 min 0 W/m 12,3 C 10,5 C 17,1 km/h (3 Bft)
08.10.2010 11:50 15,0 C 84 % 1022,5 hPa 0,0 l/m 16,7 km/h (3 Bft) SO 135 0 min 0 W/m 12,3 C 10,7 C 16,7 km/h (3 Bft)
08.10.2010 11:55 15,2 C 84 % 1022,5 hPa 0,0 l/m 18,3 km/h (3 Bft) SO 130 0 min 0 W/m 12,5 C 10,5 C 18,3 km/h (3 Bft)
08.10.2010 12:00 15,3 C 84 % 1022,5 hPa 0,0 l/m 15,4 km/h (3 Bft) SO 140 0 min 0 W/m 12,6 C 11,4 C 15,4 km/h (3 Bft)
08.10.2010 12:05 15,3 C 84 % 1022,5 hPa 0,0 l/m 18,1 km/h (3 Bft) O-SO 115 0 min 0 W/m 12,6 C 10,6 C 18,1 km/h (3 Bft)
08.10.2010 12:10 15,5 C 83 % 1022,5 hPa 0,0 l/m 17,1 km/h (3 Bft) SO 130 0 min 0 W/m 12,6 C 11,2 C 17,1 km/h (3 Bft)
08.10.2010 12:15 15,6 C 83 % 1022,5 hPa 0,0 l/m 19,0 km/h (3 Bft) O 95 0 min 0 W/m 12,7 C 10,8 C 19,0 km/h (3 Bft)
08.10.2010 12:20 15,7 C 83 % 1022,5 hPa 0,0 l/m 16,1 km/h (3 Bft) O-SO 120 0 min 0 W/m 12,8 C 11,7 C 16,1 km/h (3 Bft)
08.10.2010 12:25 15,8 C 82 % 1022,5 hPa 0,0 l/m 22,1 km/h (4 Bft) SO 125 0 min 0 W/m 12,7 C 10,3 C 22,1 km/h (4 Bft)
08.10.2010 12:30 16,0 C 83 % 1022,5 hPa 0,0 l/m 16,8 km/h (3 Bft) O-SO 115 0 min 0 W/m 13,1 C 11,9 C 16,8 km/h (3 Bft)
08.10.2010 12:35 16,2 C 82 % 1022,5 hPa 0,0 l/m 18,8 km/h (3 Bft) O-SO 105 0 min 0 W/m 13,1 C 11,6 C 18,8 km/h (3 Bft)
08.10.2010 12:40 16,3 C 82 % 1022,5 hPa 0,0 l/m 15,6 km/h (3 Bft) O-SO 120 0 min 0 W/m 13,2 C 12,6 C 15,6 km/h (3 Bft)
08.10.2010 12:45 16,4 C 81 % 1022,5 hPa 0,0 l/m 19,1 km/h (3 Bft) SO 135 0 min 0 W/m 13,1 C 11,8 C 19,1 km/h (3 Bft)
08.10.2010 12:50 16,6 C 81 % 1022,5 hPa 0,0 l/m 16,2 km/h (3 Bft) SO 125 0 min 0 W/m 13,3 C 12,8 C 16,2 km/h (3 Bft)
08.10.2010 12:55 16,7 C 80 % 1022,5 hPa 0,0 l/m 15,0 km/h (3 Bft) O-NO 75 0 min 0 W/m 13,2 C 13,3 C 15,0 km/h (3 Bft)
08.10.2010 13:00 16,8 C 79 % 1022,5 hPa 0,0 l/m 17,5 km/h (3 Bft) O-SO 120 0 min 0 W/m 13,1 C 12,7 C 17,5 km/h (3 Bft)
08.10.2010 13:05 16,6 C 80 % 1022,5 hPa 0,0 l/m 23,1 km/h (4 Bft) SO 130 0 min 0 W/m 13,1 C 11,1 C 23,1 km/h (4 Bft)
08.10.2010 13:10 16,5 C 80 % 1022,5 hPa 0,0 l/m 16,8 km/h (3 Bft) O-SO 105 0 min 0 W/m 13,0 C 12,5 C 16,8 km/h (3 Bft)
08.10.2010 13:15 16,6 C 80 % 1021,5 hPa 0,0 l/m 13,7 km/h (3 Bft) O-SO 120 0 min 0 W/m 13,1 C 13,5 C 13,7 km/h (3 Bft)
08.10.2010 13:20 16,6 C 80 % 1021,5 hPa 0,0 l/m 23,3 km/h (4 Bft) O 95 0 min 0 W/m 13,1 C 11,1 C 23,3 km/h (4 Bft)
08.10.2010 13:25 17,0 C 79 % 1021,5 hPa 0,0 l/m 12,5 km/h (2 Bft) S 170 0 min 0 W/m 13,3 C 14,4 C 12,5 km/h (2 Bft)
08.10.2010 13:30 17,2 C 79 % 1021,5 hPa 0,0 l/m 9,7 km/h (2 Bft) S-SO 155 0 min 0 W/m 13,5 C 15,7 C 9,7 km/h (2 Bft)
08.10.2010 13:35 17,4 C 77 % 1021,5 hPa 0,0 l/m 18,6 km/h (3 Bft) O-SO 115 0 min 0 W/m 13,3 C 13,2 C 18,6 km/h (3 Bft)
08.10.2010 13:40 17,4 C 78 % 1021,5 hPa 0,0 l/m 15,0 km/h (3 Bft) O-SO 115 0 min 0 W/m 13,5 C 14,1 C 15,0 km/h (3 Bft)
08.10.2010 13:45 17,5 C 77 % 1021,5 hPa 0,0 l/m 9,9 km/h (2 Bft) O-SO 110 0 min 0 W/m 13,4 C 15,9 C 9,9 km/h (2 Bft)
08.10.2010 13:50 17,6 C 78 % 1021,5 hPa 0,0 l/m 8,0 km/h (2 Bft) O-SO 105 0 min 0 W/m 13,7 C 16,8 C 8,0 km/h (2 Bft)
08.10.2010 13:55 17,7 C 77 % 1021,5 hPa 0,0 l/m 5,4 km/h (2 Bft) SO 125 0 min 0 W/m 13,6 C 17,7 C 5,4 km/h (2 Bft)
08.10.2010 14:00 17,7 C 77 % 1021,5 hPa 0,0 l/m 14,4 km/h (3 Bft) O-SO 110 0 min 0 W/m 13,6 C 14,6 C 14,4 km/h (3 Bft)
08.10.2010 14:05 17,7 C 76 % 1021,5 hPa 0,0 l/m 16,4 km/h (3 Bft) O-SO 120 0 min 0 W/m 13,4 C 14,1 C 16,4 km/h (3 Bft)
08.10.2010 14:10 17,6 C 75 % 1021,5 hPa 0,0 l/m 17,4 km/h (3 Bft) O 95 0 min 0 W/m 13,1 C 13,7 C 17,4 km/h (3 Bft)
08.10.2010 14:16 17,6 C 76 % 1021,5 hPa 0,0 l/m 16,6 km/h (3 Bft) O-SO 120 0 min 0 W/m 13,3 C 13,9 C 16,6 km/h (3 Bft)
08.10.2010 14:20 17,5 C 76 % 1021,5 hPa 0,0 l/m 18,0 km/h (3 Bft) O 100 0 min 0 W/m 13,2 C 13,4 C 18,0 km/h (3 Bft)
08.10.2010 14:25 17,4 C 77 % 1021,5 hPa 0,0 l/m 15,2 km/h (3 Bft) O-SO 105 0 min 0 W/m 13,3 C 14,0 C 15,2 km/h (3 Bft)
08.10.2010 14:30 17,4 C 77 % 1021,5 hPa 0,0 l/m 12,6 km/h (3 Bft) NO 55 0 min 0 W/m 13,3 C 14,8 C 12,6 km/h (3 Bft)
08.10.2010 14:35 17,4 C 77 % 1021,5 hPa 0,0 l/m 14,8 km/h (3 Bft) O-SO 110 0 min 0 W/m 13,3 C 14,2 C 14,8 km/h (3 Bft)
08.10.2010 14:40 17,4 C 77 % 1021,5 hPa 0,0 l/m 4,9 km/h (1 Bft) SO 140 0 min 0 W/m 13,3 C 17,4 C 4,9 km/h (1 Bft)
08.10.2010 14:45 17,3 C 76 % 1021,5 hPa 0,0 l/m 20,2 km/h (4 Bft) SO 135 0 min 0 W/m 13,0 C 12,7 C 20,2 km/h (4 Bft)
08.10.2010 14:50 17,3 C 76 % 1021,5 hPa 0,0 l/m 23,0 km/h (4 Bft) O-SO 115 0 min 0 W/m 13,0 C 12,1 C 23,0 km/h (4 Bft)
08.10.2010 14:55 17,3 C 77 % 1021,5 hPa 0,0 l/m 12,4 km/h (2 Bft) SO 125 0 min 0 W/m 13,2 C 14,8 C 12,4 km/h (2 Bft)
08.10.2010 15:00 17,3 C 76 % 1021,5 hPa 0,0 l/m 16,8 km/h (3 Bft) SO 125 0 min 0 W/m 13,0 C 13,5 C 16,8 km/h (3 Bft)
08.10.2010 15:05 17,3 C 77 % 1021,5 hPa 0,0 l/m 10,3 km/h (2 Bft) SO 145 0 min 0 W/m 13,2 C 15,5 C 10,3 km/h (2 Bft)
08.10.2010 15:10 17,5 C 77 % 1021,5 hPa 0,0 l/m 14,1 km/h (3 Bft) SO 135 0 min 0 W/m 13,4 C 14,5 C 14,1 km/h (3 Bft)
08.10.2010 15:15 17,5 C 76 % 1021,5 hPa 0,0 l/m 9,5 km/h (2 Bft) SO 125 0 min 0 W/m 13,2 C 16,1 C 9,5 km/h (2 Bft)
08.10.2010 15:20 17,4 C 76 % 1021,5 hPa 0,0 l/m 15,0 km/h (3 Bft) SO 135 0 min 0 W/m 13,1 C 14,1 C 15,0 km/h (3 Bft)
08.10.2010 15:25 17,5 C 76 % 1021,5 hPa 0,0 l/m 20,7 km/h (4 Bft) O-SO 110 0 min 0 W/m 13,2 C 12,8 C 20,7 km/h (4 Bft)
08.10.2010 15:30 17,4 C 76 % 1021,5 hPa 0,0 l/m 22,1 km/h (4 Bft) O-SO 115 0 min 0 W/m 13,1 C 12,4 C 22,1 km/h (4 Bft)
08.10.2010 15:35 17,3 C 75 % 1021,5 hPa 0,0 l/m 12,2 km/h (2 Bft) SO 125 0 min 0 W/m 12,8 C 14,9 C 12,2 km/h (2 Bft)
08.10.2010 15:40 17,3 C 75 % 1021,5 hPa 0,0 l/m 17,0 km/h (3 Bft) O-SO 105 0 min 0 W/m 12,8 C 13,4 C 17,0 km/h (3 Bft)
08.10.2010 15:45 17,2 C 75 % 1021,5 hPa 0,0 l/m 19,0 km/h (3 Bft) O-SO 105 0 min 0 W/m 12,7 C 12,8 C 19,0 km/h (3 Bft)
08.10.2010 15:50 17,2 C 75 % 1021,5 hPa 0,0 l/m 20,1 km/h (4 Bft) O-NO 75 0 min 0 W/m 12,7 C 12,6 C 20,1 km/h (4 Bft)
08.10.2010 15:55 17,2 C 76 % 1021,5 hPa 0,0 l/m 16,8 km/h (3 Bft) SO 125 0 min 0 W/m 12,9 C 13,4 C 16,8 km/h (3 Bft)
08.10.2010 16:00 17,2 C 75 % 1020,5 hPa 0,0 l/m 11,5 km/h (2 Bft) O-SO 110 0 min 0 W/m 12,7 C 15,0 C 11,5 km/h (2 Bft)
08.10.2010 16:05 17,2 C 74 % 1021,5 hPa 0,0 l/m 17,4 km/h (3 Bft) SO 130 0 min 0 W/m 12,5 C 13,2 C 17,4 km/h (3 Bft)
08.10.2010 16:10 17,1 C 74 % 1021,5 hPa 0,0 l/m 19,7 km/h (3 Bft) O 85 0 min 0 W/m 12,4 C 12,5 C 19,7 km/h (3 Bft)
08.10.2010 16:15 17,0 C 74 % 1020,5 hPa 0,0 l/m 10,8 km/h (2 Bft) O 95 0 min 0 W/m 12,3 C 15,0 C 10,8 km/h (2 Bft)
08.10.2010 16:20 16,9 C 75 % 1020,5 hPa 0,0 l/m 17,0 km/h (3 Bft) SO 130 0 min 0 W/m 12,4 C 12,9 C 17,0 km/h (3 Bft)
08.10.2010 16:25 16,8 C 75 % 1020,5 hPa 0,0 l/m 10,6 km/h (2 Bft) SO 125 0 min 0 W/m 12,3 C 14,9 C 10,6 km/h (2 Bft)
08.10.2010 16:30 16,8 C 75 % 1020,5 hPa 0,0 l/m 13,1 km/h (3 Bft) SO 130 0 min 0 W/m 12,3 C 14,0 C 13,1 km/h (3 Bft)
08.10.2010 16:35 16,8 C 75 % 1020,5 hPa 0,0 l/m 13,7 km/h (3 Bft) SO 130 0 min 0 W/m 12,3 C 13,8 C 13,7 km/h (3 Bft)
08.10.2010 16:40 16,7 C 75 % 1020,5 hPa 0,0 l/m 15,1 km/h (3 Bft) O-SO 105 0 min 0 W/m 12,2 C 13,2 C 15,1 km/h (3 Bft)
08.10.2010 16:45 16,6 C 75 % 1020,5 hPa 0,0 l/m 17,0 km/h (3 Bft) O-SO 105 0 min 0 W/m 12,1 C 12,6 C 17,0 km/h (3 Bft)
08.10.2010 16:50 16,6 C 75 % 1020,5 hPa 0,0 l/m 16,7 km/h (3 Bft) O-SO 120 0 min 0 W/m 12,1 C 12,6 C 16,7 km/h (3 Bft)
08.10.2010 16:55 16,6 C 75 % 1020,5 hPa 0,0 l/m 10,1 km/h (2 Bft) SO 140 0 min 0 W/m 12,1 C 14,8 C 10,1 km/h (2 Bft)
08.10.2010 17:00 16,5 C 75 % 1020,5 hPa 0,0 l/m 12,1 km/h (2 Bft) SO 125 0 min 0 W/m 12,1 C 14,0 C 12,1 km/h (2 Bft)
08.10.2010 17:05 16,4 C 76 % 1020,5 hPa 0,0 l/m 14,0 km/h (3 Bft) SO 145 0 min 0 W/m 12,2 C 13,2 C 14,0 km/h (3 Bft)
08.10.2010 17:10 16,4 C 76 % 1020,5 hPa 0,0 l/m 23,1 km/h (4 Bft) O-SO 115 0 min 0 W/m 12,2 C 10,9 C 23,1 km/h (4 Bft)
08.10.2010 17:15 16,4 C 76 % 1020,5 hPa 0,0 l/m 18,6 km/h (3 Bft) O-SO 115 0 min 0 W/m 12,2 C 11,9 C 18,6 km/h (3 Bft)
08.10.2010 17:20 16,4 C 76 % 1020,5 hPa 0,0 l/m 12,3 km/h (2 Bft) O-SO 120 0 min 0 W/m 12,2 C 13,8 C 12,3 km/h (2 Bft)
08.10.2010 17:25 16,3 C 77 % 1020,5 hPa 0,0 l/m 17,5 km/h (3 Bft) O-SO 115 0 min 0 W/m 12,3 C 12,1 C 17,5 km/h (3 Bft)
08.10.2010 17:30 16,3 C 77 % 1020,5 hPa 0,0 l/m 17,5 km/h (3 Bft) SO 140 0 min 0 W/m 12,3 C 12,1 C 17,5 km/h (3 Bft)
08.10.2010 17:36 16,2 C 78 % 1020,5 hPa 0,0 l/m 15,0 km/h (3 Bft) SO 125 0 min 0 W/m 12,4 C 12,6 C 15,0 km/h (3 Bft)
08.10.2010 17:40 16,0 C 78 % 1020,5 hPa 0,0 l/m 10,3 km/h (2 Bft) O-SO 105 0 min 0 W/m 12,2 C 14,1 C 10,3 km/h (2 Bft)
08.10.2010 17:45 15,9 C 78 % 1020,5 hPa 0,0 l/m 15,0 km/h (3 Bft) O-SO 115 0 min 0 W/m 12,1 C 12,3 C 15,0 km/h (3 Bft)
08.10.2010 17:50 15,8 C 78 % 1020,5 hPa 0,0 l/m 18,0 km/h (3 Bft) O-SO 105 0 min 0 W/m 12,0 C 11,3 C 18,0 km/h (3 Bft)
08.10.2010 17:55 15,8 C 79 % 1020,5 hPa 0,0 l/m 16,0 km/h (3 Bft) SO 125 0 min 0 W/m 12,2 C 11,9 C 16,0 km/h (3 Bft)
08.10.2010 18:00 15,7 C 79 % 1020,5 hPa 0,0 l/m 14,6 km/h (3 Bft) SO 135 0 min 0 W/m 12,1 C 12,2 C 14,6 km/h (3 Bft)
08.10.2010 18:05 15,6 C 79 % 1020,5 hPa 0,0 l/m 14,6 km/h (3 Bft) SO 125 0 min 0 W/m 12,0 C 12,0 C 14,6 km/h (3 Bft)
08.10.2010 18:10 15,6 C 79 % 1020,5 hPa 0,0 l/m 13,8 km/h (3 Bft) O-SO 120 0 min 0 W/m 12,0 C 12,3 C 13,8 km/h (3 Bft)
08.10.2010 18:15 15,4 C 79 % 1020,5 hPa 0,0 l/m 20,6 km/h (4 Bft) O-SO 105 0 min 0 W/m 11,8 C 10,1 C 20,6 km/h (4 Bft)
08.10.2010 18:20 15,4 C 79 % 1021,5 hPa 0,0 l/m 15,8 km/h (3 Bft) O 95 0 min 0 W/m 11,8 C 11,4 C 15,8 km/h (3 Bft)
08.10.2010 18:25 15,2 C 79 % 1020,5 hPa 0,0 l/m 16,4 km/h (3 Bft) O-SO 110 0 min 0 W/m 11,6 C 11,0 C 16,4 km/h (3 Bft)
08.10.2010 18:30 15,2 C 80 % 1020,5 hPa 0,0 l/m 12,2 km/h (2 Bft) SO 125 0 min 0 W/m 11,8 C 12,4 C 12,2 km/h (2 Bft)
08.10.2010 18:35 15,1 C 80 % 1020,5 hPa 0,0 l/m 24,0 km/h (4 Bft) O-SO 120 0 min 0 W/m 11,7 C 9,0 C 24,0 km/h (4 Bft)
08.10.2010 18:40 15,0 C 80 % 1021,5 hPa 0,0 l/m 16,6 km/h (3 Bft) O-SO 110 0 min 0 W/m 11,6 C 10,7 C 16,6 km/h (3 Bft)
08.10.2010 18:45 15,0 C 80 % 1020,5 hPa 0,0 l/m 23,3 km/h (4 Bft) SO 140 0 min 0 W/m 11,6 C 9,0 C 23,3 km/h (4 Bft)
08.10.2010 18:50 15,0 C 80 % 1021,5 hPa 0,0 l/m 19,2 km/h (3 Bft) SO 130 0 min 0 W/m 11,6 C 10,0 C 19,2 km/h (3 Bft)
08.10.2010 18:55 15,0 C 80 % 1021,5 hPa 0,0 l/m 24,4 km/h (4 Bft) O-SO 120 0 min 0 W/m 11,6 C 8,7 C 24,4 km/h (4 Bft)
08.10.2010 19:00 14,9 C 80 % 1021,5 hPa 0,0 l/m 15,5 km/h (3 Bft) SO 140 0 min 0 W/m 11,5 C 10,9 C 15,5 km/h (3 Bft)
08.10.2010 19:05 14,8 C 80 % 1021,5 hPa 0,0 l/m 18,5 km/h (3 Bft) SO 135 0 min 0 W/m 11,4 C 9,9 C 18,5 km/h (3 Bft)
08.10.2010 19:10 14,7 C 80 % 1021,5 hPa 0,0 l/m 13,3 km/h (3 Bft) O-SO 110 0 min 0 W/m 11,3 C 11,4 C 13,3 km/h (3 Bft)
08.10.2010 19:15 14,7 C 80 % 1021,5 hPa 0,0 l/m 14,7 km/h (3 Bft) SO 130 0 min 0 W/m 11,3 C 10,9 C 14,7 km/h (3 Bft)
08.10.2010 19:20 14,6 C 80 % 1021,5 hPa 0,0 l/m 12,3 km/h (2 Bft) S-SO 155 0 min 0 W/m 11,2 C 11,7 C 12,3 km/h (2 Bft)
08.10.2010 19:25 14,6 C 80 % 1021,5 hPa 0,0 l/m 20,3 km/h (4 Bft) SO 130 0 min 0 W/m 11,2 C 9,2 C 20,3 km/h (4 Bft)
08.10.2010 19:30 14,5 C 80 % 1021,5 hPa 0,0 l/m 15,3 km/h (3 Bft) SO 125 0 min 0 W/m 11,1 C 10,5 C 15,3 km/h (3 Bft)
08.10.2010 19:35 14,5 C 80 % 1021,5 hPa 0,0 l/m 16,9 km/h (3 Bft) SO 125 0 min 0 W/m 11,1 C 10,0 C 16,9 km/h (3 Bft)
08.10.2010 19:40 14,4 C 80 % 1021,5 hPa 0,0 l/m 18,4 km/h (3 Bft) SO 135 0 min 0 W/m 11,0 C 9,4 C 18,4 km/h (3 Bft)
08.10.2010 19:45 14,5 C 80 % 1021,5 hPa 0,0 l/m 21,7 km/h (4 Bft) O-SO 115 0 min 0 W/m 11,1 C 8,7 C 21,7 km/h (4 Bft)
08.10.2010 19:50 14,4 C 80 % 1021,5 hPa 0,0 l/m 17,2 km/h (3 Bft) SO 145 0 min 0 W/m 11,0 C 9,8 C 17,2 km/h (3 Bft)
08.10.2010 19:55 14,4 C 80 % 1021,5 hPa 0,0 l/m 13,6 km/h (3 Bft) SO 125 0 min 0 W/m 11,0 C 11,0 C 13,6 km/h (3 Bft)
08.10.2010 20:00 14,4 C 80 % 1021,5 hPa 0,0 l/m 11,6 km/h (2 Bft) O-SO 105 0 min 0 W/m 11,0 C 11,7 C 11,6 km/h (2 Bft)
08.10.2010 20:05 14,4 C 80 % 1021,5 hPa 0,0 l/m 17,0 km/h (3 Bft) SO 140 0 min 0 W/m 11,0 C 9,8 C 17,0 km/h (3 Bft)
08.10.2010 20:10 14,3 C 80 % 1021,5 hPa 0,0 l/m 14,6 km/h (3 Bft) SO 125 0 min 0 W/m 10,9 C 10,5 C 14,6 km/h (3 Bft)
08.10.2010 20:15 14,3 C 80 % 1021,5 hPa 0,0 l/m 14,5 km/h (3 Bft) O-SO 115 0 min 0 W/m 10,9 C 10,5 C 14,5 km/h (3 Bft)
08.10.2010 20:20 14,2 C 81 % 1021,5 hPa 0,0 l/m 11,4 km/h (2 Bft) O-SO 105 0 min 0 W/m 11,0 C 11,6 C 11,4 km/h (2 Bft)
08.10.2010 20:25 14,1 C 81 % 1021,5 hPa 0,0 l/m 11,5 km/h (2 Bft) SO 130 0 min 0 W/m 10,9 C 11,4 C 11,5 km/h (2 Bft)
08.10.2010 20:30 14,0 C 81 % 1021,5 hPa 0,0 l/m 15,1 km/h (3 Bft) SO 125 0 min 0 W/m 10,8 C 9,9 C 15,1 km/h (3 Bft)
08.10.2010 20:35 14,0 C 81 % 1021,5 hPa 0,0 l/m 14,2 km/h (3 Bft) SO 145 0 min 0 W/m 10,8 C 10,3 C 14,2 km/h (3 Bft)
08.10.2010 20:40 13,9 C 82 % 1021,5 hPa 0,0 l/m 13,8 km/h (3 Bft) SO 130 0 min 0 W/m 10,9 C 10,3 C 13,8 km/h (3 Bft)
08.10.2010 20:45 13,8 C 82 % 1021,5 hPa 0,0 l/m 8,9 km/h (2 Bft) O-SO 115 0 min 0 W/m 10,8 C 12,3 C 8,9 km/h (2 Bft)
08.10.2010 20:50 13,8 C 82 % 1021,5 hPa 0,0 l/m 5,7 km/h (2 Bft) O-SO 120 0 min 0 W/m 10,8 C 13,8 C 5,7 km/h (2 Bft)
08.10.2010 20:55 13,8 C 82 % 1021,5 hPa 0,0 l/m 7,9 km/h (2 Bft) SO 125 0 min 0 W/m 10,8 C 12,9 C 7,9 km/h (2 Bft)
08.10.2010 21:00 13,7 C 82 % 1021,5 hPa 0,0 l/m 10,1 km/h (2 Bft) O-SO 105 0 min 0 W/m 10,7 C 11,6 C 10,1 km/h (2 Bft)
08.10.2010 21:05 13,7 C 82 % 1022,5 hPa 0,0 l/m 13,8 km/h (3 Bft) SO 125 0 min 0 W/m 10,7 C 10,1 C 13,8 km/h (3 Bft)
08.10.2010 21:10 13,6 C 83 % 1022,5 hPa 0,0 l/m 13,4 km/h (3 Bft) O-SO 115 0 min 0 W/m 10,8 C 10,1 C 13,4 km/h (3 Bft)
08.10.2010 21:15 13,5 C 83 % 1021,5 hPa 0,0 l/m 12,2 km/h (2 Bft) O 80 0 min 0 W/m 10,7 C 10,5 C 12,2 km/h (2 Bft)
08.10.2010 21:20 13,5 C 83 % 1021,5 hPa 0,0 l/m 11,5 km/h (2 Bft) O 95 0 min 0 W/m 10,7 C 10,8 C 11,5 km/h (2 Bft)
08.10.2010 21:25 13,4 C 83 % 1022,5 hPa 0,0 l/m 17,3 km/h (3 Bft) SO 135 0 min 0 W/m 10,6 C 8,5 C 17,3 km/h (3 Bft)
08.10.2010 21:30 13,4 C 83 % 1022,5 hPa 0,0 l/m 6,9 km/h (2 Bft) O-SO 105 0 min 0 W/m 10,6 C 13,1 C 6,9 km/h (2 Bft)
08.10.2010 21:35 13,3 C 83 % 1021,5 hPa 0,0 l/m 10,7 km/h (2 Bft) SO 125 0 min 0 W/m 10,5 C 10,9 C 10,7 km/h (2 Bft)
08.10.2010 21:40 13,3 C 83 % 1021,5 hPa 0,0 l/m 12,0 km/h (2 Bft) O-SO 105 0 min 0 W/m 10,5 C 10,3 C 12,0 km/h (2 Bft)
08.10.2010 21:45 13,2 C 83 % 1022,5 hPa 0,0 l/m 17,9 km/h (3 Bft) SO 125 0 min 0 W/m 10,4 C 8,0 C 17,9 km/h (3 Bft)
08.10.2010 21:50 13,2 C 83 % 1022,5 hPa 0,0 l/m 14,0 km/h (3 Bft) SO 135 0 min 0 W/m 10,4 C 9,4 C 14,0 km/h (3 Bft)
08.10.2010 21:55 13,2 C 83 % 1021,5 hPa 0,0 l/m 19,0 km/h (3 Bft) SO 140 0 min 0 W/m 10,4 C 7,7 C 19,0 km/h (3 Bft)
08.10.2010 22:00 13,1 C 83 % 1021,5 hPa 0,0 l/m 16,6 km/h (3 Bft) SO 135 0 min 0 W/m 10,3 C 8,3 C 16,6 km/h (3 Bft)
08.10.2010 22:05 13,1 C 82 % 1022,5 hPa 0,0 l/m 12,3 km/h (2 Bft) O-SO 120 0 min 0 W/m 10,1 C 10,0 C 12,3 km/h (2 Bft)
08.10.2010 22:10 13,1 C 82 % 1022,5 hPa 0,0 l/m 14,0 km/h (3 Bft) SO 130 0 min 0 W/m 10,1 C 9,3 C 14,0 km/h (3 Bft)
08.10.2010 22:15 13,0 C 82 % 1022,5 hPa 0,0 l/m 13,6 km/h (3 Bft) SO 140 0 min 0 W/m 10,0 C 9,3 C 13,6 km/h (3 Bft)
08.10.2010 22:20 13,0 C 82 % 1022,5 hPa 0,0 l/m 18,5 km/h (3 Bft) SO 135 0 min 0 W/m 10,0 C 7,6 C 18,5 km/h (3 Bft)
08.10.2010 22:25 13,0 C 82 % 1022,5 hPa 0,0 l/m 18,7 km/h (3 Bft) O-SO 115 0 min 0 W/m 10,0 C 7,5 C 18,7 km/h (3 Bft)
08.10.2010 22:30 13,0 C 83 % 1022,5 hPa 0,0 l/m 14,7 km/h (3 Bft) O 100 0 min 0 W/m 10,2 C 8,9 C 14,7 km/h (3 Bft)
08.10.2010 22:35 12,9 C 83 % 1022,5 hPa 0,0 l/m 15,8 km/h (3 Bft) SO 130 0 min 0 W/m 10,1 C 8,4 C 15,8 km/h (3 Bft)
08.10.2010 22:40 12,8 C 83 % 1022,5 hPa 0,0 l/m 15,7 km/h (3 Bft) O 100 0 min 0 W/m 10,0 C 8,3 C 15,7 km/h (3 Bft)
08.10.2010 22:45 12,8 C 83 % 1022,5 hPa 0,0 l/m 16,1 km/h (3 Bft) O-SO 105 0 min 0 W/m 10,0 C 8,1 C 16,1 km/h (3 Bft)
08.10.2010 22:51 12,8 C 83 % 1022,5 hPa 0,0 l/m 16,5 km/h (3 Bft) O-SO 110 0 min 0 W/m 10,0 C 8,0 C 16,5 km/h (3 Bft)
08.10.2010 22:55 12,8 C 83 % 1022,5 hPa 0,0 l/m 18,5 km/h (3 Bft) S-SO 165 0 min 0 W/m 10,0 C 7,3 C 18,5 km/h (3 Bft)
08.10.2010 23:00 12,8 C 83 % 1022,5 hPa 0,0 l/m 16,1 km/h (3 Bft) SO 130 0 min 0 W/m 10,0 C 8,1 C 16,1 km/h (3 Bft)
08.10.2010 23:05 12,7 C 83 % 1022,5 hPa 0,0 l/m 20,0 km/h (4 Bft) SO 130 0 min 0 W/m 9,9 C 6,8 C 20,0 km/h (4 Bft)
08.10.2010 23:10 12,6 C 83 % 1022,5 hPa 0,0 l/m 16,4 km/h (3 Bft) SO 140 0 min 0 W/m 9,8 C 7,8 C 16,4 km/h (3 Bft)
08.10.2010 23:15 12,6 C 83 % 1022,5 hPa 0,0 l/m 18,6 km/h (3 Bft) SO 135 0 min 0 W/m 9,8 C 7,1 C 18,6 km/h (3 Bft)
08.10.2010 23:20 12,6 C 83 % 1022,5 hPa 0,0 l/m 18,5 km/h (3 Bft) O 95 0 min 0 W/m 9,8 C 7,1 C 18,5 km/h (3 Bft)
08.10.2010 23:25 12,6 C 83 % 1022,5 hPa 0,0 l/m 14,0 km/h (3 Bft) SO 130 0 min 0 W/m 9,8 C 8,7 C 14,0 km/h (3 Bft)
08.10.2010 23:30 12,5 C 83 % 1022,5 hPa 0,0 l/m 16,3 km/h (3 Bft) SO 125 0 min 0 W/m 9,7 C 7,7 C 16,3 km/h (3 Bft)
08.10.2010 23:35 12,5 C 83 % 1022,5 hPa 0,0 l/m 12,1 km/h (2 Bft) O-SO 120 0 min 0 W/m 9,7 C 9,3 C 12,1 km/h (2 Bft)
08.10.2010 23:40 12,5 C 83 % 1022,5 hPa 0,0 l/m 23,0 km/h (4 Bft) SO 135 0 min 0 W/m 9,7 C 5,7 C 23,0 km/h (4 Bft)
08.10.2010 23:45 12,4 C 83 % 1022,5 hPa 0,0 l/m 14,8 km/h (3 Bft) O-SO 115 0 min 0 W/m 9,6 C 8,1 C 14,8 km/h (3 Bft)
08.10.2010 23:50 12,4 C 83 % 1022,5 hPa 0,0 l/m 16,5 km/h (3 Bft) SO 135 0 min 0 W/m 9,6 C 7,5 C 16,5 km/h (3 Bft)
08.10.2010 23:55 12,4 C 83 % 1022,5 hPa 0,0 l/m 18,5 km/h (3 Bft) O-SO 120 0 min 0 W/m 9,6 C 6,8 C 18,5 km/h (3 Bft)
_ Min-Zeit 23:45 16:05 16:00 - 02:00 - - - - 23:45 23:40 02:00
Minimum _ 12,4 C 74 % 1020,5 hPa - 1,3 km/h (1 Bft) - - - - 9,6 C 5,7 C 1,3 km/h (1 Bft)
_ Max-Zeit 13:55 01:45 00:00 00:00 10:10 - - 00:00 00:00 13:50 13:55 10:10
Maximum _ 17,7 C 92 % 1022,5 hPa 0,0 l/m 25,3 km/h
O (4 Bft)
- - 0 min 0 W/m 13,7 C 17,7 C 25,3 km/h
O (4 Bft)
Durchschnitt _ 14,8 C 85 % 1021,7 hPa #0,0 l/m 13,6 km/h (3 Bft) SO - #0 min. 0 W/m 12,2 C 11,6 C 13,6 km/h (3 Bft)
copyright by Holger Just